createdAt,value
2018-06-19T00:00:15.734Z,20.70
2018-06-19T00:02:44.301Z,20.60
2018-06-19T00:05:12.810Z,20.60
2018-06-19T00:07:41.358Z,20.60
2018-06-19T00:10:09.850Z,20.60
2018-06-19T00:12:38.350Z,20.60
2018-06-19T00:15:06.895Z,20.50
2018-06-19T00:17:36.318Z,20.50
2018-06-19T00:20:04.979Z,20.50
2018-06-19T00:25:01.683Z,20.40
2018-06-19T00:27:30.170Z,20.40
2018-06-19T00:29:58.694Z,20.30
2018-06-19T00:32:27.190Z,20.30
2018-06-19T00:34:55.681Z,20.30
2018-06-19T00:37:24.175Z,20.30
2018-06-19T00:39:53.189Z,20.30
2018-06-19T00:42:21.718Z,20.20
2018-06-19T00:44:50.236Z,20.20
2018-06-19T00:47:18.742Z,20.20
2018-06-19T00:49:47.218Z,20.10
2018-06-19T00:52:15.766Z,20.10
2018-06-19T00:54:44.256Z,20.10
2018-06-19T00:57:12.723Z,20.10
2018-06-19T00:59:41.246Z,20.10
2018-06-19T01:02:09.709Z,20.10
2018-06-19T01:04:38.218Z,20.10
2018-06-19T01:07:06.867Z,20.00
2018-06-19T01:09:35.352Z,20.00
2018-06-19T01:12:03.861Z,20.00
2018-06-19T01:14:32.382Z,20.00
2018-06-19T01:17:00.903Z,20.00
2018-06-19T01:19:29.390Z,20.00
2018-06-19T01:21:57.878Z,20.00
2018-06-19T01:24:26.376Z,19.90
2018-06-19T01:26:54.894Z,19.90
2018-06-19T01:29:23.426Z,19.90
2018-06-19T01:31:51.895Z,19.80
2018-06-19T01:34:20.370Z,19.80
2018-06-19T01:36:48.890Z,19.80
2018-06-19T01:39:17.338Z,19.80
2018-06-19T01:41:45.828Z,19.70
2018-06-19T01:44:14.358Z,19.70
2018-06-19T01:46:42.831Z,19.60
2018-06-19T01:49:11.314Z,19.60
2018-06-19T01:51:39.888Z,19.60
2018-06-19T01:54:08.378Z,19.60
2018-06-19T01:56:36.946Z,19.60
2018-06-19T01:59:05.587Z,19.60
2018-06-19T02:01:34.068Z,19.50
2018-06-19T02:04:02.623Z,19.50
2018-06-19T02:06:31.103Z,19.40
2018-06-19T02:08:59.594Z,19.40
2018-06-19T02:11:28.110Z,19.40
2018-06-19T02:13:56.713Z,19.30
2018-06-19T02:16:25.222Z,19.20
2018-06-19T02:18:53.954Z,19.20
2018-06-19T02:23:50.654Z,19.20
2018-06-19T02:26:19.171Z,19.10
2018-06-19T02:28:47.645Z,19.10
2018-06-19T02:31:16.206Z,19.10
2018-06-19T02:33:44.698Z,19.10
2018-06-19T02:36:13.190Z,19.10
2018-06-19T02:38:41.723Z,19.10
2018-06-19T02:41:10.174Z,19.10
2018-06-19T02:43:38.666Z,19.10
2018-06-19T02:46:07.182Z,19.10
2018-06-19T02:48:35.694Z,19.00
2018-06-19T02:51:04.224Z,19.00
2018-06-19T02:53:32.682Z,19.00
2018-06-19T02:56:01.215Z,19.00
2018-06-19T02:58:29.714Z,19.00
2018-06-19T03:00:58.201Z,19.00
2018-06-19T03:03:26.747Z,19.00
2018-06-19T03:05:55.250Z,19.00
2018-06-19T03:08:23.759Z,19.00
2018-06-19T03:10:52.230Z,18.90
2018-06-19T03:13:20.742Z,18.90
2018-06-19T03:15:49.237Z,18.90
2018-06-19T03:18:17.817Z,18.90
2018-06-19T03:20:46.303Z,19.00
2018-06-19T03:23:14.793Z,19.00
2018-06-19T03:25:43.290Z,19.00
2018-06-19T03:28:11.770Z,19.00
2018-06-19T03:30:40.264Z,19.00
2018-06-19T03:33:08.875Z,19.10
2018-06-19T03:35:37.353Z,19.00
2018-06-19T03:40:34.098Z,19.10
2018-06-19T03:43:02.585Z,19.00
2018-06-19T03:45:31.287Z,19.00
2018-06-19T03:48:00.264Z,19.00
2018-06-19T03:50:28.774Z,19.10
2018-06-19T03:52:57.316Z,19.10
2018-06-19T03:55:25.881Z,19.20
2018-06-19T03:57:54.360Z,19.30
2018-06-19T04:00:22.842Z,19.40
2018-06-19T04:02:51.391Z,19.40
2018-06-19T04:05:19.935Z,19.50
2018-06-19T04:07:48.443Z,19.50
2018-06-19T04:10:16.954Z,19.50
2018-06-19T04:12:45.442Z,19.60
2018-06-19T04:15:13.942Z,19.60
2018-06-19T04:17:42.474Z,19.60
2018-06-19T04:20:10.984Z,19.70
2018-06-19T04:22:39.518Z,19.80
2018-06-19T04:25:08.059Z,19.70
2018-06-19T04:27:36.535Z,19.80
2018-06-19T04:30:05.696Z,19.80
2018-06-19T04:32:34.538Z,19.80
2018-06-19T04:35:03.066Z,19.90
2018-06-19T04:37:31.608Z,19.90
2018-06-19T04:40:00.140Z,19.90
2018-06-19T04:42:28.679Z,19.90
2018-06-19T04:44:57.162Z,19.90
2018-06-19T04:47:25.727Z,20.00
2018-06-19T04:49:54.303Z,20.00
2018-06-19T04:52:22.796Z,20.00
2018-06-19T04:54:51.286Z,20.00
2018-06-19T04:57:19.822Z,20.10
2018-06-19T04:59:48.357Z,20.20
2018-06-19T05:02:16.865Z,20.20
2018-06-19T05:04:45.389Z,20.30
2018-06-19T05:07:13.959Z,20.30
2018-06-19T05:09:42.491Z,20.40
2018-06-19T05:12:10.962Z,20.40
2018-06-19T05:14:39.461Z,20.40
2018-06-19T05:17:08.006Z,20.50
2018-06-19T05:19:36.527Z,20.60
2018-06-19T05:22:05.025Z,20.70
2018-06-19T05:24:33.587Z,20.70
2018-06-19T05:27:02.179Z,20.80
2018-06-19T05:29:30.749Z,20.80
2018-06-19T05:31:59.278Z,20.80
2018-06-19T05:34:27.762Z,20.90
2018-06-19T05:36:56.297Z,21.00
2018-06-19T05:39:24.761Z,21.20
2018-06-19T05:41:53.259Z,21.30
2018-06-19T05:44:21.739Z,21.40
2018-06-19T05:46:50.303Z,21.50
2018-06-19T05:49:18.891Z,21.60
2018-06-19T05:51:48.427Z,21.60
2018-06-19T05:54:16.934Z,21.70
2018-06-19T05:56:45.479Z,21.80
2018-06-19T05:59:14.056Z,21.90
2018-06-19T06:01:42.564Z,22.00
2018-06-19T06:04:11.049Z,22.00
2018-06-19T06:06:39.627Z,22.00
2018-06-19T06:09:09.292Z,22.00
2018-06-19T06:11:37.802Z,22.10
2018-06-19T06:14:06.386Z,22.20
2018-06-19T06:16:34.969Z,22.30
2018-06-19T06:19:03.439Z,22.40
2018-06-19T06:21:31.969Z,22.30
2018-06-19T06:24:00.529Z,22.40
2018-06-19T06:26:29.262Z,22.40
2018-06-19T06:28:57.802Z,22.50
2018-06-19T06:31:26.316Z,22.70
2018-06-19T06:33:54.964Z,22.80
2018-06-19T06:36:23.490Z,22.90
2018-06-19T06:38:52.013Z,23.00
2018-06-19T06:41:20.706Z,23.10
2018-06-19T06:43:49.232Z,23.10
2018-06-19T06:46:17.837Z,23.30
2018-06-19T06:48:46.330Z,23.50
2018-06-19T06:51:14.883Z,23.60
2018-06-19T06:53:43.379Z,23.70
2018-06-19T06:56:11.911Z,24.00
2018-06-19T06:58:40.339Z,24.10
2018-06-19T07:01:08.974Z,24.30
2018-06-19T07:03:37.444Z,24.50
2018-06-19T07:06:05.981Z,24.70
2018-06-19T07:08:34.562Z,24.90
2018-06-19T07:11:03.076Z,25.00
2018-06-19T07:13:31.613Z,25.20
2018-06-19T07:16:00.115Z,25.40
2018-06-19T07:18:28.674Z,25.70
2018-06-19T07:20:57.313Z,25.90
2018-06-19T07:23:25.789Z,26.20
2018-06-19T07:25:54.432Z,26.30
2018-06-19T07:28:22.911Z,26.50
2018-06-19T07:30:51.441Z,26.90
2018-06-19T07:33:19.966Z,26.90
2018-06-19T07:35:48.529Z,27.10
2018-06-19T07:38:17.075Z,27.20
2018-06-19T07:40:45.672Z,27.40
2018-06-19T07:43:14.203Z,27.60
2018-06-19T07:45:42.978Z,27.80
2018-06-19T07:48:11.511Z,28.10
2018-06-19T07:50:40.384Z,28.20
2018-06-19T07:53:09.014Z,28.60
2018-06-19T07:55:37.527Z,28.70
2018-06-19T07:58:06.106Z,28.80
2018-06-19T08:00:35.451Z,29.00
2018-06-19T08:03:03.975Z,28.90
2018-06-19T08:05:32.513Z,29.20
2018-06-19T08:08:01.071Z,29.20
2018-06-19T08:10:29.605Z,29.50
2018-06-19T08:12:58.132Z,29.60
2018-06-19T08:15:26.690Z,29.80
2018-06-19T08:17:55.234Z,30.00
2018-06-19T08:20:23.840Z,29.90
2018-06-19T08:22:52.431Z,30.00
2018-06-19T08:25:21.009Z,30.30
2018-06-19T08:27:49.578Z,30.20
2018-06-19T08:30:19.148Z,30.40
2018-06-19T08:32:47.739Z,30.60
2018-06-19T08:35:16.693Z,30.80
2018-06-19T08:37:45.299Z,30.90
2018-06-19T08:40:13.841Z,31.10
2018-06-19T08:42:42.388Z,31.20
2018-06-19T08:45:10.985Z,31.30
2018-06-19T08:47:39.513Z,31.20
2018-06-19T08:50:08.004Z,31.40
2018-06-19T08:52:37.175Z,31.40
2018-06-19T08:55:05.888Z,30.80
2018-06-19T08:57:34.412Z,31.30
2018-06-19T09:00:03.145Z,31.70
2018-06-19T09:02:31.710Z,31.70
2018-06-19T09:05:00.671Z,31.80
2018-06-19T09:07:29.287Z,32.00
2018-06-19T09:09:57.831Z,31.90
2018-06-19T09:12:27.167Z,31.50
2018-06-19T09:14:55.707Z,31.80
2018-06-19T09:17:24.336Z,32.00
2018-06-19T09:19:52.887Z,32.10
2018-06-19T09:22:21.464Z,32.20
2018-06-19T09:24:50.249Z,32.30
2018-06-19T09:27:18.865Z,32.10
2018-06-19T11:14:22.901Z,32.20
2018-06-19T11:22:54.758Z,32.00
2018-06-19T11:31:21.237Z,32.00
2018-06-19T11:39:46.985Z,32.90
2018-06-19T11:42:36.255Z,32.70
2018-06-19T11:48:16.031Z,32.50
2018-06-19T11:51:02.121Z,32.30
2018-06-19T11:59:32.366Z,32.70
2018-06-19T12:10:46.364Z,32.30
2018-06-19T12:24:57.006Z,32.80
2018-06-19T12:36:12.118Z,32.40
2018-06-19T12:39:01.964Z,32.30
2018-06-19T12:44:40.637Z,32.40
2018-06-19T12:53:09.477Z,32.00
2018-06-19T13:04:25.500Z,31.30
2018-06-19T13:10:05.487Z,31.70
2018-06-19T13:21:17.116Z,32.20
2018-06-19T13:32:32.415Z,32.10
2018-06-19T13:41:01.925Z,31.90
2018-06-19T13:46:42.982Z,31.80
2018-06-19T13:49:35.665Z,31.90
2018-06-19T13:55:14.369Z,32.00
2018-06-19T13:58:01.303Z,31.80
2018-06-19T14:00:42.539Z,31.80
2018-06-19T14:03:34.045Z,31.60
2018-06-19T20:37:20.734Z,22.80
2018-06-19T20:39:49.234Z,22.70
2018-06-19T20:42:19.059Z,22.70
2018-06-19T20:44:47.668Z,22.70
2018-06-19T20:47:16.146Z,22.60
2018-06-19T20:49:44.645Z,22.50
2018-06-19T20:52:13.275Z,22.50
2018-06-19T20:54:42.011Z,22.40
2018-06-19T20:57:10.518Z,22.40
2018-06-19T20:59:39.035Z,22.40
2018-06-19T21:02:07.761Z,22.30
2018-06-19T21:04:36.331Z,22.20
2018-06-19T21:07:04.914Z,22.20
2018-06-19T21:09:33.594Z,22.10
2018-06-19T21:12:02.079Z,22.10
2018-06-19T21:14:30.538Z,22.00
2018-06-19T21:16:59.944Z,22.00
2018-06-19T21:19:28.582Z,21.80
2018-06-19T21:21:57.352Z,21.80
2018-06-19T21:24:26.224Z,21.80
2018-06-19T21:26:54.730Z,21.80
2018-06-19T21:29:23.513Z,21.70
2018-06-19T21:31:51.998Z,21.70
2018-06-19T21:34:20.556Z,21.70
2018-06-19T21:36:49.059Z,21.70
2018-06-19T21:39:17.559Z,21.60
2018-06-19T21:41:46.107Z,21.50
2018-06-19T21:44:16.545Z,21.50
2018-06-19T21:46:46.537Z,21.50
2018-06-19T21:49:15.105Z,21.50
2018-06-19T21:51:43.607Z,21.50
2018-06-19T21:54:12.117Z,21.40
2018-06-19T21:56:40.579Z,21.40
2018-06-19T21:59:09.075Z,21.40
2018-06-19T22:01:37.637Z,21.30
2018-06-19T22:04:06.163Z,21.30
2018-06-19T22:06:34.743Z,21.20
2018-06-19T22:09:04.107Z,21.20
2018-06-19T22:11:32.889Z,21.20
2018-06-19T22:14:01.572Z,21.20
2018-06-19T22:16:30.412Z,21.10
2018-06-19T22:18:59.055Z,21.10
2018-06-19T22:21:27.667Z,21.10
2018-06-19T22:23:56.150Z,21.00
2018-06-19T22:26:25.648Z,21.00
2018-06-19T22:28:58.340Z,21.00
2018-06-19T22:31:27.184Z,20.90
2018-06-19T22:33:56.730Z,20.70
2018-06-19T22:36:29.278Z,20.70
2018-06-19T22:38:59.667Z,20.80
2018-06-19T22:41:30.928Z,20.80
2018-06-19T22:44:03.661Z,20.80
2018-06-19T22:46:32.423Z,20.80
2018-06-19T22:49:01.190Z,20.70
2018-06-19T22:51:29.739Z,20.80
2018-06-19T22:53:58.208Z,20.80
2018-06-19T22:56:26.716Z,20.80
2018-06-19T22:58:55.316Z,20.80
2018-06-19T23:01:24.137Z,20.80
2018-06-19T23:03:52.808Z,20.80
2018-06-19T23:06:21.433Z,20.80
2018-06-19T23:08:49.932Z,20.80
2018-06-19T23:11:18.423Z,20.80
2018-06-19T23:13:46.997Z,20.80
2018-06-19T23:16:15.499Z,20.80
2018-06-19T23:18:44.080Z,20.80
2018-06-19T23:21:12.574Z,20.70
2018-06-19T23:23:41.061Z,20.70
2018-06-19T23:26:09.614Z,20.70
2018-06-19T23:28:38.108Z,20.70
2018-06-19T23:31:06.707Z,20.60
2018-06-19T23:33:35.588Z,20.60
2018-06-19T23:36:04.052Z,20.50
2018-06-19T23:38:32.585Z,20.50
2018-06-19T23:41:01.161Z,20.50
2018-06-19T23:43:29.632Z,20.40
2018-06-19T23:45:58.244Z,20.40
2018-06-19T23:48:26.713Z,20.30
2018-06-19T23:50:55.201Z,20.30
2018-06-19T23:53:23.793Z,20.20
2018-06-19T23:55:52.898Z,20.20
2018-06-19T23:58:21.496Z,20.20
